Time,TemperatureF,DewpointF,PressureIn,WindDirection,WindDirectionDegrees,WindSpeedMPH,WindSpeedGustMPH,Humidity,HourlyPrecipIn,Conditions,Clouds,dailyrainin,SoftwareType,DateUTC
2014-03-05 00:11:00,52.0,51.0,29.89,ESE,105,3.0,10.0,95,0.00,,,0.00,,2014-03-05 08:11:00,
2014-03-05 00:22:00,52.0,51.0,29.89,ESE,105,3.0,10.0,95,0.00,,,0.00,,2014-03-05 08:22:00,
2014-03-05 00:42:00,51.0,50.0,29.87,NE,45,3.0,8.0,96,0.01,,,0.01,,2014-03-05 08:42:00,
2014-03-05 00:52:00,52.0,51.0,29.87,SE,146,2.0,10.0,96,0.01,,,0.01,,2014-03-05 08:52:00,
2014-03-05 01:21:00,51.0,50.0,29.88,NNE,23,2.0,9.0,96,0.00,,,0.01,,2014-03-05 09:21:00,
2014-03-05 01:33:00,51.0,50.0,29.88,NNE,23,2.0,9.0,96,0.00,,,0.01,,2014-03-05 09:33:00,
2014-03-05 01:43:00,51.0,50.0,29.88,NNE,23,2.0,9.0,96,0.00,,,0.01,,2014-03-05 09:43:00,
2014-03-05 01:53:00,51.0,50.0,29.88,ENE,59,1.0,3.0,97,0.00,,,0.01,,2014-03-05 09:53:00,
2014-03-05 02:02:00,51.0,50.0,29.88,ENE,59,1.0,3.0,97,0.00,,,0.01,,2014-03-05 10:02:00,
2014-03-05 02:23:00,51.0,50.0,29.86,East,101,2.0,6.0,96,0.01,,,0.02,,2014-03-05 10:23:00,
2014-03-05 02:43:00,51.0,50.0,29.86,ENE,68,3.0,8.0,96,0.01,,,0.02,,2014-03-05 10:43:00,
2014-03-05 02:53:00,51.0,50.0,29.85,ESE,107,3.0,8.0,96,0.01,,,0.02,,2014-03-05 10:53:00,
2014-03-05 03:22:00,51.0,50.0,29.84,East,98,1.0,4.0,97,0.02,,,0.04,,2014-03-05 11:22:00,
2014-03-05 03:42:00,51.0,50.0,29.84,ESE,103,1.0,4.0,97,0.03,,,0.05,,2014-03-05 11:42:00,
2014-03-05 03:52:00,51.0,50.0,29.85,East,94,1.0,5.0,97,0.03,,,0.05,,2014-03-05 11:52:00,
2014-03-05 04:22:00,51.0,50.0,29.84,East,88,2.0,7.0,98,0.04,,,0.08,,2014-03-05 12:22:00,
2014-03-05 04:42:00,51.0,50.0,29.84,ESE,120,3.0,8.0,98,0.04,,,0.09,,2014-03-05 12:42:00,
2014-03-05 04:52:00,51.0,50.0,29.84,ESE,120,3.0,8.0,98,0.04,,,0.09,,2014-03-05 12:52:00,
2014-03-05 05:22:00,51.0,50.0,29.84,ENE,67,2.0,10.0,98,0.04,,,0.11,,2014-03-05 13:22:00,
2014-03-05 05:32:00,51.0,50.0,29.84,ENE,67,2.0,10.0,98,0.04,,,0.11,,2014-03-05 13:32:00,
2014-03-05 05:52:00,50.0,49.0,29.83,ENE,78,3.0,7.0,98,0.06,,,0.16,,2014-03-05 13:52:00,
2014-03-05 06:02:00,50.0,49.0,29.83,ENE,78,3.0,7.0,98,0.06,,,0.16,,2014-03-05 14:02:00,
2014-03-05 06:21:00,50.0,49.0,29.83,ENE,63,4.0,10.0,98,0.06,,,0.17,,2014-03-05 14:21:00,
2014-03-05 06:32:00,50.0,49.0,29.83,ENE,63,4.0,10.0,98,0.06,,,0.17,,2014-03-05 14:32:00,
2014-03-05 06:52:00,51.0,50.0,29.82,ESE,122,2.0,8.0,98,0.05,,,0.20,,2014-03-05 14:52:00,
2014-03-05 07:13:00,51.0,50.0,29.83,East,91,2.0,7.0,98,0.10,,,0.27,,2014-03-05 15:13:00,
2014-03-05 07:21:00,51.0,50.0,29.83,SE,140,3.0,8.0,98,0.06,,,0.23,,2014-03-05 15:21:00,
2014-03-05 07:43:00,51.0,50.0,29.83,East,91,2.0,7.0,98,0.10,,,0.27,,2014-03-05 15:43:00,
2014-03-05 07:53:00,51.0,50.0,29.83,East,91,2.0,7.0,98,0.10,,,0.27,,2014-03-05 15:53:00,
2014-03-05 08:03:00,51.0,50.0,29.83,East,91,2.0,7.0,98,0.10,,,0.27,,2014-03-05 16:03:00,
2014-03-05 08:43:00,51.0,50.0,29.84,ESE,116,2.0,7.0,98,0.10,,,0.36,,2014-03-05 16:43:00,
2014-03-05 08:54:00,51.0,50.0,29.82,SE,126,4.0,11.0,98,0.11,,,0.40,,2014-03-05 16:54:00,
2014-03-05 09:02:00,51.0,50.0,29.82,SE,126,4.0,11.0,98,0.11,,,0.40,,2014-03-05 17:02:00,
2014-03-05 09:22:00,52.0,51.0,29.82,East,85,2.0,6.0,98,0.08,,,0.41,,2014-03-05 17:22:00,
2014-03-05 09:32:00,52.0,51.0,29.82,East,85,2.0,6.0,98,0.08,,,0.41,,2014-03-05 17:32:00,
2014-03-05 09:52:00,53.0,52.0,29.82,ESE,108,3.0,7.0,97,0.01,,,0.41,,2014-03-05 17:52:00,
2014-03-05 10:02:00,53.0,52.0,29.82,ESE,108,3.0,7.0,97,0.01,,,0.41,,2014-03-05 18:02:00,
2014-03-05 10:21:00,53.0,52.0,29.81,East,80,4.0,8.0,97,0.00,,,0.41,,2014-03-05 18:21:00,
2014-03-05 10:43:00,53.0,52.0,29.81,SE,142,4.0,9.0,97,0.00,,,0.41,,2014-03-05 18:43:00,
2014-03-05 10:53:00,54.0,53.0,29.80,ESE,114,3.0,7.0,97,0.00,,,0.41,,2014-03-05 18:53:00,
2014-03-05 11:21:00,54.0,53.0,29.79,ENE,71,3.0,7.0,96,0.00,,,0.41,,2014-03-05 19:21:00,
2014-03-05 11:32:00,54.0,53.0,29.79,ENE,71,3.0,7.0,96,0.00,,,0.41,,2014-03-05 19:32:00,
2014-03-05 11:52:00,55.0,54.0,29.77,ESE,105,3.0,8.0,95,0.00,,,0.41,,2014-03-05 19:52:00,
2014-03-05 12:01:00,55.0,54.0,29.77,ESE,105,3.0,8.0,95,0.00,,,0.41,,2014-03-05 20:01:00,
2014-03-05 12:21:00,56.0,55.0,29.75,ESE,106,3.0,8.0,95,0.00,,,0.41,,2014-03-05 20:21:00,
2014-03-05 12:42:00,57.0,56.0,29.73,South,185,1.0,6.0,96,0.01,,,0.42,,2014-03-05 20:42:00,
2014-03-05 12:52:00,58.0,56.0,29.72,East,87,3.0,9.0,93,0.01,,,0.42,,2014-03-05 20:52:00,
2014-03-05 13:11:00,59.0,56.0,29.71,ESE,115,2.0,8.0,91,0.01,,,0.42,,2014-03-05 21:11:00,
2014-03-05 13:22:00,59.0,57.0,29.69,East,88,3.0,7.0,92,0.01,,,0.42,,2014-03-05 21:22:00,
2014-03-05 13:33:00,59.0,57.0,29.69,East,88,3.0,7.0,92,0.01,,,0.42,,2014-03-05 21:33:00,
2014-03-05 13:43:00,59.0,57.0,29.69,East,88,3.0,7.0,92,0.01,,,0.42,,2014-03-05 21:43:00,
2014-03-05 13:54:00,59.0,56.0,29.67,East,80,4.0,9.0,91,0.00,,,0.42,,2014-03-05 21:54:00,
2014-03-05 14:23:00,58.0,55.0,29.62,ENE,68,4.0,10.0,91,0.00,,,0.42,,2014-03-05 22:23:00,
2014-03-05 14:43:00,58.0,55.0,29.64,South,186,2.0,10.0,91,0.00,,,0.42,,2014-03-05 22:43:00,
2014-03-05 14:53:00,58.0,57.0,29.65,NNW,337,1.0,4.0,95,0.01,,,0.43,,2014-03-05 22:53:00,
2014-03-05 15:02:00,58.0,57.0,29.65,NNW,337,1.0,4.0,95,0.01,,,0.43,,2014-03-05 23:02:00,
2014-03-05 15:21:00,57.0,56.0,29.62,SE,139,1.0,4.0,97,0.06,,,0.48,,2014-03-05 23:21:00,
2014-03-05 15:53:00,57.0,56.0,29.61,SE,126,2.0,4.0,96,0.06,,,0.49,,2014-03-05 23:53:00,
2014-03-05 16:21:00,57.0,56.0,29.58,ENE,58,1.0,4.0,97,0.01,,,0.49,,2014-03-06 00:21:00,
2014-03-05 16:42:00,57.0,56.0,29.58,ESE,107,3.0,7.0,97,0.00,,,0.49,,2014-03-06 00:42:00,
2014-03-05 16:52:00,57.0,56.0,29.57,East,101,5.0,10.0,97,0.02,,,0.51,,2014-03-06 00:52:00,
2014-03-05 17:01:00,57.0,56.0,29.57,East,101,5.0,10.0,97,0.02,,,0.51,,2014-03-06 01:01:00,
2014-03-05 17:21:00,57.0,56.0,29.57,NE,42,1.0,6.0,98,0.02,,,0.51,,2014-03-06 01:21:00,
2014-03-05 17:31:00,57.0,56.0,29.57,NE,42,1.0,6.0,98,0.02,,,0.51,,2014-03-06 01:31:00,
2014-03-05 17:52:00,57.0,56.0,29.58,NE,46,1.0,6.0,98,0.04,,,0.54,,2014-03-06 01:52:00,
2014-03-05 18:01:00,57.0,56.0,29.58,NE,46,1.0,6.0,98,0.04,,,0.54,,2014-03-06 02:01:00,
2014-03-05 18:21:00,57.0,56.0,29.61,West,271,4.0,13.0,98,0.20,,,0.71,,2014-03-06 02:21:00,
2014-03-05 18:32:00,57.0,56.0,29.61,West,271,4.0,13.0,98,0.20,,,0.71,,2014-03-06 02:32:00,
2014-03-05 18:42:00,57.0,56.0,29.61,West,271,4.0,13.0,98,0.20,,,0.71,,2014-03-06 02:42:00,
2014-03-05 19:21:00,55.0,54.0,29.62,SSE,165,1.0,8.0,95,0.38,,,0.93,,2014-03-06 03:21:00,
2014-03-05 19:53:00,54.0,53.0,29.64,North,355,1.0,3.0,95,0.00,,,0.93,,2014-03-06 03:53:00,
2014-03-05 20:03:00,54.0,53.0,29.64,North,355,1.0,3.0,95,0.00,,,0.93,,2014-03-06 04:03:00,
2014-03-05 20:22:00,54.0,52.0,29.66,North,11,2.0,9.0,94,0.00,,,0.93,,2014-03-06 04:22:00,
2014-03-05 20:52:00,51.0,50.0,29.66,ENE,57,1.0,4.0,98,0.00,,,0.93,,2014-03-06 04:52:00,
2014-03-05 21:02:00,51.0,50.0,29.66,ENE,57,1.0,4.0,98,0.00,,,0.93,,2014-03-06 05:02:00,
2014-03-05 21:23:00,52.0,52.0,29.68,NW,317,2.0,5.0,99,0.00,,,0.93,,2014-03-06 05:23:00,
2014-03-05 21:33:00,52.0,52.0,29.68,NW,317,2.0,5.0,99,0.00,,,0.93,,2014-03-06 05:33:00,
2014-03-05 21:53:00,53.0,51.0,29.70,SW,221,3.0,10.0,94,0.10,,,1.03,,2014-03-06 05:53:00,
2014-03-05 22:21:00,51.0,50.0,29.70,NW,305,1.0,16.0,97,0.11,,,1.04,,2014-03-06 06:21:00,
2014-03-05 22:52:00,51.0,49.0,29.71,NW,312,1.0,4.0,94,0.01,,,1.04,,2014-03-06 06:52:00,
2014-03-05 23:02:00,51.0,49.0,29.71,NW,312,1.0,4.0,94,0.01,,,1.04,,2014-03-06 07:02:00,
2014-03-05 23:21:00,50.0,49.0,29.72,ENE,62,1.0,4.0,96,0.00,,,1.04,,2014-03-06 07:21:00,
2014-03-05 23:32:00,50.0,49.0,29.72,ENE,62,1.0,4.0,96,0.00,,,1.04,,2014-03-06 07:32:00,
2014-03-05 23:52:00,49.0,48.0,29.73,NNW,343,1.0,5.0,96,0.00,,,1.04,,2014-03-06 07:52:00,